sensor_id;sensor_type;location;lat;lon;timestamp;pressure;altitude;pressure_sealevel;temperature;humidity
74529;BME280;63009;52.584;5.932;2023-12-14T00:01:28;100723.66;;;5.32;100.00
74529;BME280;63009;52.584;5.932;2023-12-14T00:03:53;100729.03;;;5.29;100.00
74529;BME280;63009;52.584;5.932;2023-12-14T00:06:18;100726.06;;;5.39;100.00
74529;BME280;63009;52.584;5.932;2023-12-14T00:08:44;100735.75;;;5.36;100.00
74529;BME280;63009;52.584;5.932;2023-12-14T00:11:10;100730.88;;;5.27;100.00
74529;BME280;63009;52.584;5.932;2023-12-14T00:13:36;100738.00;;;5.24;100.00
74529;BME280;63009;52.584;5.932;2023-12-14T00:16:02;100738.38;;;5.36;100.00
74529;BME280;63009;52.584;5.932;2023-12-14T00:18:28;100754.91;;;5.39;100.00
74529;BME280;63009;52.584;5.932;2023-12-14T00:20:53;100755.44;;;5.47;100.00
74529;BME280;63009;52.584;5.932;2023-12-14T00:23:20;100764.28;;;5.44;100.00
74529;BME280;63009;52.584;5.932;2023-12-14T00:25:45;100769.78;;;5.15;100.00
74529;BME280;63009;52.584;5.932;2023-12-14T00:28:10;100758.72;;;5.06;100.00
74529;BME280;63009;52.584;5.932;2023-12-14T00:30:36;100768.84;;;5.16;100.00
74529;BME280;63009;52.584;5.932;2023-12-14T00:33:01;100757.34;;;5.20;100.00
74529;BME280;63009;52.584;5.932;2023-12-14T00:35:27;100766.88;;;5.22;100.00
74529;BME280;63009;52.584;5.932;2023-12-14T00:37:52;100766.63;;;5.28;100.00
74529;BME280;63009;52.584;5.932;2023-12-14T00:40:17;100767.28;;;5.35;100.00
74529;BME280;63009;52.584;5.932;2023-12-14T00:42:43;100759.44;;;5.33;100.00
74529;BME280;63009;52.584;5.932;2023-12-14T00:45:09;100773.31;;;5.37;100.00
74529;BME280;63009;52.584;5.932;2023-12-14T00:47:34;100775.13;;;5.35;100.00
74529;BME280;63009;52.584;5.932;2023-12-14T00:49:59;100784.06;;;5.29;100.00
74529;BME280;63009;52.584;5.932;2023-12-14T00:52:25;100780.91;;;5.20;100.00
74529;BME280;63009;52.584;5.932;2023-12-14T00:54:50;100779.69;;;5.30;100.00
74529;BME280;63009;52.584;5.932;2023-12-14T00:57:16;100789.97;;;5.34;100.00
74529;BME280;63009;52.584;5.932;2023-12-14T00:59:41;100805.75;;;5.33;100.00
74529;BME280;63009;52.584;5.932;2023-12-14T01:02:06;100801.50;;;5.30;100.00
74529;BME280;63009;52.584;5.932;2023-12-14T01:04:32;100798.13;;;5.27;100.00
74529;BME280;63009;52.584;5.932;2023-12-14T01:06:57;100801.88;;;5.20;100.00
74529;BME280;63009;52.584;5.932;2023-12-14T01:09:23;100811.81;;;5.35;100.00
74529;BME280;63009;52.584;5.932;2023-12-14T01:11:48;100816.28;;;5.31;100.00
74529;BME280;63009;52.584;5.932;2023-12-14T01:14:13;100827.53;;;5.35;100.00
74529;BME280;63009;52.584;5.932;2023-12-14T01:16:39;100826.03;;;5.28;100.00
74529;BME280;63009;52.584;5.932;2023-12-14T01:19:04;100830.25;;;5.32;100.00
74529;BME280;63009;52.584;5.932;2023-12-14T01:21:31;100847.59;;;5.36;100.00
74529;BME280;63009;52.584;5.932;2023-12-14T01:23:56;100857.97;;;5.39;100.00
74529;BME280;63009;52.584;5.932;2023-12-14T01:26:22;100855.84;;;5.49;100.00
74529;BME280;63009;52.584;5.932;2023-12-14T01:28:47;100860.00;;;5.54;100.00
74529;BME280;63009;52.584;5.932;2023-12-14T01:31:12;100866.16;;;5.53;100.00
74529;BME280;63009;52.584;5.932;2023-12-14T01:33:38;100880.25;;;5.51;100.00
74529;BME280;63009;52.584;5.932;2023-12-14T01:36:03;100876.97;;;5.44;100.00
74529;BME280;63009;52.584;5.932;2023-12-14T01:38:28;100885.56;;;5.49;100.00
74529;BME280;63009;52.584;5.932;2023-12-14T01:40:54;100890.50;;;5.57;100.00
74529;BME280;63009;52.584;5.932;2023-12-14T01:43:21;100886.66;;;5.42;100.00
74529;BME280;63009;52.584;5.932;2023-12-14T01:45:47;100887.94;;;5.55;100.00
74529;BME280;63009;52.584;5.932;2023-12-14T01:48:12;100882.97;;;5.48;100.00
74529;BME280;63009;52.584;5.932;2023-12-14T01:50:38;100877.34;;;5.35;100.00
74529;BME280;63009;52.584;5.932;2023-12-14T01:53:03;100882.22;;;5.44;100.00
74529;BME280;63009;52.584;5.932;2023-12-14T01:55:28;100885.22;;;5.33;100.00
74529;BME280;63009;52.584;5.932;2023-12-14T01:57:54;100898.63;;;5.26;100.00
74529;BME280;63009;52.584;5.932;2023-12-14T02:00:40;100910.63;;;5.31;100.00
74529;BME280;63009;52.584;5.932;2023-12-14T02:03:06;100914.06;;;5.33;100.00
74529;BME280;63009;52.584;5.932;2023-12-14T02:05:31;100928.53;;;5.19;100.00
74529;BME280;63009;52.584;5.932;2023-12-14T02:07:57;100921.47;;;5.22;100.00
74529;BME280;63009;52.584;5.932;2023-12-14T02:10:22;100936.28;;;5.23;100.00
74529;BME280;63009;52.584;5.932;2023-12-14T02:12:48;100937.19;;;5.22;100.00
74529;BME280;63009;52.584;5.932;2023-12-14T02:15:13;100934.50;;;5.24;100.00
74529;BME280;63009;52.584;5.932;2023-12-14T02:17:38;100944.97;;;5.24;100.00
74529;BME280;63009;52.584;5.932;2023-12-14T02:20:05;100940.53;;;5.26;100.00
74529;BME280;63009;52.584;5.932;2023-12-14T02:22:52;100946.75;;;5.23;100.00
74529;BME280;63009;52.584;5.932;2023-12-14T02:25:19;100947.63;;;4.97;100.00
74529;BME280;63009;52.584;5.932;2023-12-14T02:27:44;100961.47;;;5.01;100.00
74529;BME280;63009;52.584;5.932;2023-12-14T02:30:11;100968.38;;;5.03;100.00
74529;BME280;63009;52.584;5.932;2023-12-14T02:32:37;100970.06;;;5.04;100.00
74529;BME280;63009;52.584;5.932;2023-12-14T02:35:03;100975.06;;;5.12;100.00
74529;BME280;63009;52.584;5.932;2023-12-14T02:37:29;100971.09;;;5.00;100.00
74529;BME280;63009;52.584;5.932;2023-12-14T02:39:54;100967.78;;;4.95;100.00
74529;BME280;63009;52.584;5.932;2023-12-14T02:42:20;100973.56;;;5.05;100.00
74529;BME280;63009;52.584;5.932;2023-12-14T02:44:46;100979.69;;;5.04;100.00
74529;BME280;63009;52.584;5.932;2023-12-14T02:47:11;100981.78;;;5.21;100.00
74529;BME280;63009;52.584;5.932;2023-12-14T02:49:37;100984.31;;;4.97;100.00
74529;BME280;63009;52.584;5.932;2023-12-14T02:52:02;100991.94;;;5.03;100.00
74529;BME280;63009;52.584;5.932;2023-12-14T02:54:27;100979.91;;;4.98;100.00
74529;BME280;63009;52.584;5.932;2023-12-14T02:56:53;100985.59;;;4.84;100.00
74529;BME280;63009;52.584;5.932;2023-12-14T02:59:18;100996.66;;;4.92;100.00
74529;BME280;63009;52.584;5.932;2023-12-14T03:01:43;100993.63;;;4.78;100.00
74529;BME280;63009;52.584;5.932;2023-12-14T03:04:09;101000.91;;;4.96;100.00
74529;BME280;63009;52.584;5.932;2023-12-14T03:06:34;100996.38;;;5.01;100.00
74529;BME280;63009;52.584;5.932;2023-12-14T03:09:00;101004.13;;;5.04;100.00
74529;BME280;63009;52.584;5.932;2023-12-14T03:11:25;100995.78;;;4.93;100.00
74529;BME280;63009;52.584;5.932;2023-12-14T03:13:51;100998.16;;;5.01;100.00
74529;BME280;63009;52.584;5.932;2023-12-14T03:16:18;101006.22;;;5.21;100.00
74529;BME280;63009;52.584;5.932;2023-12-14T03:18:43;101016.69;;;5.21;100.00
74529;BME280;63009;52.584;5.932;2023-12-14T03:21:09;101015.28;;;5.11;100.00
74529;BME280;63009;52.584;5.932;2023-12-14T03:23:34;101019.25;;;4.96;100.00
74529;BME280;63009;52.584;5.932;2023-12-14T03:26:00;101021.72;;;5.01;100.00
74529;BME280;63009;52.584;5.932;2023-12-14T03:28:26;101031.50;;;4.96;100.00
74529;BME280;63009;52.584;5.932;2023-12-14T03:30:51;101028.09;;;4.92;100.00
74529;BME280;63009;52.584;5.932;2023-12-14T03:33:17;101031.84;;;4.85;100.00
74529;BME280;63009;52.584;5.932;2023-12-14T03:35:42;101034.34;;;4.88;100.00
74529;BME280;63009;52.584;5.932;2023-12-14T03:38:08;101028.59;;;4.77;100.00
74529;BME280;63009;52.584;5.932;2023-12-14T03:40:34;101030.81;;;4.89;100.00
74529;BME280;63009;52.584;5.932;2023-12-14T03:42:59;101043.63;;;4.98;100.00
74529;BME280;63009;52.584;5.932;2023-12-14T03:45:25;101043.09;;;4.87;100.00
74529;BME280;63009;52.584;5.932;2023-12-14T03:47:50;101046.00;;;4.78;100.00
74529;BME280;63009;52.584;5.932;2023-12-14T03:50:15;101043.56;;;5.00;100.00
74529;BME280;63009;52.584;5.932;2023-12-14T03:52:41;101047.75;;;4.77;100.00
74529;BME280;63009;52.584;5.932;2023-12-14T03:55:06;101042.31;;;4.85;100.00
74529;BME280;63009;52.584;5.932;2023-12-14T03:57:32;101051.75;;;4.89;100.00
74529;BME280;63009;52.584;5.932;2023-12-14T03:59:57;101049.88;;;4.94;100.00
74529;BME280;63009;52.584;5.932;2023-12-14T04:02:22;101055.63;;;4.77;100.00
74529;BME280;63009;52.584;5.932;2023-12-14T04:04:48;101053.84;;;4.78;100.00
74529;BME280;63009;52.584;5.932;2023-12-14T04:07:13;101050.25;;;4.82;100.00
74529;BME280;63009;52.584;5.932;2023-12-14T04:09:39;101056.19;;;4.87;100.00
74529;BME280;63009;52.584;5.932;2023-12-14T04:12:04;101059.09;;;4.78;100.00
74529;BME280;63009;52.584;5.932;2023-12-14T04:14:30;101057.00;;;4.89;100.00
74529;BME280;63009;52.584;5.932;2023-12-14T04:16:55;101059.34;;;4.70;100.00
74529;BME280;63009;52.584;5.932;2023-12-14T04:19:20;101063.56;;;4.74;100.00
74529;BME280;63009;52.584;5.932;2023-12-14T04:21:47;101072.97;;;4.82;100.00
74529;BME280;63009;52.584;5.932;2023-12-14T04:24:12;101080.72;;;4.85;100.00
74529;BME280;63009;52.584;5.932;2023-12-14T04:26:38;101080.81;;;4.82;100.00
74529;BME280;63009;52.584;5.932;2023-12-14T04:29:05;101081.59;;;4.85;100.00
74529;BME280;63009;52.584;5.932;2023-12-14T04:31:31;101085.22;;;4.81;100.00
74529;BME280;63009;52.584;5.932;2023-12-14T04:33:56;101103.88;;;4.98;100.00
74529;BME280;63009;52.584;5.932;2023-12-14T04:36:22;101103.44;;;4.84;100.00
74529;BME280;63009;52.584;5.932;2023-12-14T04:38:47;101109.59;;;4.83;100.00
74529;BME280;63009;52.584;5.932;2023-12-14T04:41:13;101106.88;;;4.86;100.00
74529;BME280;63009;52.584;5.932;2023-12-14T04:43:39;101118.25;;;4.85;100.00
74529;BME280;63009;52.584;5.932;2023-12-14T04:46:05;101119.16;;;4.84;100.00
74529;BME280;63009;52.584;5.932;2023-12-14T04:48:31;101121.06;;;4.77;100.00
74529;BME280;63009;52.584;5.932;2023-12-14T04:50:56;101129.78;;;4.80;100.00
74529;BME280;63009;52.584;5.932;2023-12-14T04:53:22;101141.22;;;4.75;100.00
74529;BME280;63009;52.584;5.932;2023-12-14T04:55:47;101128.06;;;4.79;100.00
74529;BME280;63009;52.584;5.932;2023-12-14T04:58:12;101136.63;;;4.84;100.00
74529;BME280;63009;52.584;5.932;2023-12-14T05:00:38;101131.47;;;4.81;100.00
74529;BME280;63009;52.584;5.932;2023-12-14T05:03:03;101140.25;;;4.78;100.00
74529;BME280;63009;52.584;5.932;2023-12-14T05:05:28;101159.94;;;4.91;100.00
74529;BME280;63009;52.584;5.932;2023-12-14T05:07:54;101159.38;;;4.82;100.00
74529;BME280;63009;52.584;5.932;2023-12-14T05:10:19;101168.22;;;4.77;100.00
74529;BME280;63009;52.584;5.932;2023-12-14T05:12:45;101176.25;;;4.71;100.00
74529;BME280;63009;52.584;5.932;2023-12-14T05:15:10;101182.72;;;4.89;100.00
74529;BME280;63009;52.584;5.932;2023-12-14T05:17:36;101187.63;;;4.70;100.00
74529;BME280;63009;52.584;5.932;2023-12-14T05:20:07;101190.56;;;4.89;100.00
74529;BME280;63009;52.584;5.932;2023-12-14T05:22:33;101181.69;;;4.95;100.00
74529;BME280;63009;52.584;5.932;2023-12-14T05:24:58;101194.78;;;4.95;100.00
74529;BME280;63009;52.584;5.932;2023-12-14T05:27:24;101201.13;;;4.86;100.00
74529;BME280;63009;52.584;5.932;2023-12-14T05:29:50;101211.50;;;4.89;100.00
74529;BME280;63009;52.584;5.932;2023-12-14T05:32:15;101215.59;;;4.99;100.00
74529;BME280;63009;52.584;5.932;2023-12-14T05:34:40;101210.84;;;4.83;100.00
74529;BME280;63009;52.584;5.932;2023-12-14T05:37:05;101223.94;;;4.83;100.00
74529;BME280;63009;52.584;5.932;2023-12-14T05:39:31;101212.81;;;4.74;100.00
74529;BME280;63009;52.584;5.932;2023-12-14T05:41:56;101236.03;;;4.87;100.00
74529;BME280;63009;52.584;5.932;2023-12-14T05:44:21;101234.31;;;4.86;100.00
74529;BME280;63009;52.584;5.932;2023-12-14T05:46:47;101237.69;;;4.89;100.00
74529;BME280;63009;52.584;5.932;2023-12-14T05:49:13;101235.22;;;4.85;100.00
74529;BME280;63009;52.584;5.932;2023-12-14T05:51:39;101245.25;;;5.00;100.00
74529;BME280;63009;52.584;5.932;2023-12-14T05:54:04;101255.22;;;4.87;100.00
74529;BME280;63009;52.584;5.932;2023-12-14T05:56:30;101260.16;;;4.98;100.00
74529;BME280;63009;52.584;5.932;2023-12-14T05:58:55;101247.47;;;4.84;100.00
74529;BME280;63009;52.584;5.932;2023-12-14T06:01:22;101256.00;;;4.91;100.00
74529;BME280;63009;52.584;5.932;2023-12-14T06:03:48;101254.47;;;4.84;100.00
74529;BME280;63009;52.584;5.932;2023-12-14T06:06:13;101253.31;;;4.92;100.00
74529;BME280;63009;52.584;5.932;2023-12-14T06:08:39;101265.84;;;4.83;100.00
74529;BME280;63009;52.584;5.932;2023-12-14T06:11:05;101259.00;;;4.77;100.00
74529;BME280;63009;52.584;5.932;2023-12-14T06:13:36;101262.09;;;4.91;100.00
74529;BME280;63009;52.584;5.932;2023-12-14T06:16:02;101283.69;;;4.99;100.00
74529;BME280;63009;52.584;5.932;2023-12-14T06:18:28;101282.44;;;4.82;100.00
74529;BME280;63009;52.584;5.932;2023-12-14T06:20:53;101297.34;;;4.80;100.00
74529;BME280;63009;52.584;5.932;2023-12-14T06:23:18;101294.25;;;4.96;100.00
74529;BME280;63009;52.584;5.932;2023-12-14T06:25:44;101294.31;;;4.95;100.00
74529;BME280;63009;52.584;5.932;2023-12-14T06:28:09;101312.75;;;4.90;100.00
74529;BME280;63009;52.584;5.932;2023-12-14T06:30:34;101304.03;;;4.90;100.00
74529;BME280;63009;52.584;5.932;2023-12-14T06:33:00;101305.88;;;4.86;100.00
74529;BME280;63009;52.584;5.932;2023-12-14T06:35:25;101312.13;;;4.82;100.00
74529;BME280;63009;52.584;5.932;2023-12-14T06:37:50;101311.03;;;4.89;100.00
74529;BME280;63009;52.584;5.932;2023-12-14T06:40:16;101307.34;;;4.96;100.00
74529;BME280;63009;52.584;5.932;2023-12-14T06:42:41;101313.22;;;5.04;100.00
74529;BME280;63009;52.584;5.932;2023-12-14T06:45:08;101313.03;;;5.12;100.00
74529;BME280;63009;52.584;5.932;2023-12-14T06:47:33;101316.66;;;5.06;100.00
74529;BME280;63009;52.584;5.932;2023-12-14T06:49:59;101318.31;;;5.11;100.00
74529;BME280;63009;52.584;5.932;2023-12-14T06:52:24;101325.13;;;5.16;100.00
74529;BME280;63009;52.584;5.932;2023-12-14T06:54:49;101337.72;;;5.03;100.00
74529;BME280;63009;52.584;5.932;2023-12-14T06:57:15;101339.75;;;4.92;100.00
74529;BME280;63009;52.584;5.932;2023-12-14T06:59:40;101338.69;;;4.99;100.00
74529;BME280;63009;52.584;5.932;2023-12-14T07:02:06;101344.84;;;4.98;100.00
74529;BME280;63009;52.584;5.932;2023-12-14T07:04:31;101358.16;;;4.57;100.00
74529;BME280;63009;52.584;5.932;2023-12-14T07:06:56;101352.88;;;4.58;100.00
74529;BME280;63009;52.584;5.932;2023-12-14T07:09:22;101353.88;;;4.54;100.00
74529;BME280;63009;52.584;5.932;2023-12-14T07:11:47;101364.13;;;4.62;100.00
74529;BME280;63009;52.584;5.932;2023-12-14T07:14:13;101362.38;;;4.62;100.00
74529;BME280;63009;52.584;5.932;2023-12-14T07:16:41;101377.06;;;4.68;100.00
74529;BME280;63009;52.584;5.932;2023-12-14T07:19:06;101371.16;;;4.60;100.00
74529;BME280;63009;52.584;5.932;2023-12-14T07:21:31;101377.53;;;4.84;100.00
74529;BME280;63009;52.584;5.932;2023-12-14T07:23:57;101372.84;;;4.62;100.00
74529;BME280;63009;52.584;5.932;2023-12-14T07:26:23;101387.56;;;4.68;100.00
74529;BME280;63009;52.584;5.932;2023-12-14T07:28:48;101396.25;;;4.68;100.00
74529;BME280;63009;52.584;5.932;2023-12-14T07:31:13;101393.00;;;4.59;100.00
74529;BME280;63009;52.584;5.932;2023-12-14T07:33:39;101416.78;;;4.85;100.00
74529;BME280;63009;52.584;5.932;2023-12-14T07:36:04;101414.19;;;4.84;100.00
74529;BME280;63009;52.584;5.932;2023-12-14T07:38:31;101410.88;;;4.77;100.00
74529;BME280;63009;52.584;5.932;2023-12-14T07:40:56;101412.06;;;4.64;100.00
74529;BME280;63009;52.584;5.932;2023-12-14T07:43:22;101427.72;;;4.67;100.00
74529;BME280;63009;52.584;5.932;2023-12-14T07:45:48;101428.88;;;4.55;100.00
74529;BME280;63009;52.584;5.932;2023-12-14T07:48:13;101426.97;;;4.62;100.00
74529;BME280;63009;52.584;5.932;2023-12-14T07:50:39;101436.44;;;4.67;100.00
74529;BME280;63009;52.584;5.932;2023-12-14T07:53:04;101442.44;;;4.71;100.00
74529;BME280;63009;52.584;5.932;2023-12-14T07:55:30;101436.53;;;4.63;100.00
74529;BME280;63009;52.584;5.932;2023-12-14T07:57:55;101446.09;;;4.64;100.00
74529;BME280;63009;52.584;5.932;2023-12-14T08:00:21;101461.81;;;4.65;100.00
74529;BME280;63009;52.584;5.932;2023-12-14T08:02:46;101455.75;;;4.62;100.00
74529;BME280;63009;52.584;5.932;2023-12-14T08:05:12;101457.56;;;4.60;100.00
74529;BME280;63009;52.584;5.932;2023-12-14T08:07:37;101469.66;;;4.64;100.00
74529;BME280;63009;52.584;5.932;2023-12-14T08:10:03;101470.59;;;4.61;100.00
74529;BME280;63009;52.584;5.932;2023-12-14T08:12:28;101472.28;;;4.65;100.00
74529;BME280;63009;52.584;5.932;2023-12-14T08:14:57;101467.84;;;4.67;100.00
74529;BME280;63009;52.584;5.932;2023-12-14T08:17:22;101473.69;;;4.79;100.00
74529;BME280;63009;52.584;5.932;2023-12-14T08:19:47;101457.19;;;4.75;100.00
74529;BME280;63009;52.584;5.932;2023-12-14T08:22:12;101472.16;;;4.70;100.00
74529;BME280;63009;52.584;5.932;2023-12-14T08:24:41;101474.03;;;4.65;100.00
74529;BME280;63009;52.584;5.932;2023-12-14T08:27:06;101475.75;;;4.64;100.00
74529;BME280;63009;52.584;5.932;2023-12-14T08:29:32;101476.59;;;4.66;100.00
74529;BME280;63009;52.584;5.932;2023-12-14T08:31:57;101468.66;;;4.69;100.00
74529;BME280;63009;52.584;5.932;2023-12-14T08:34:27;101478.31;;;4.67;100.00
74529;BME280;63009;52.584;5.932;2023-12-14T08:36:52;101487.97;;;4.65;100.00
74529;BME280;63009;52.584;5.932;2023-12-14T08:39:18;101496.63;;;4.69;100.00
74529;BME280;63009;52.584;5.932;2023-12-14T08:41:45;101499.00;;;4.78;100.00
74529;BME280;63009;52.584;5.932;2023-12-14T08:44:10;101503.28;;;4.82;100.00
74529;BME280;63009;52.584;5.932;2023-12-14T08:46:44;101511.06;;;4.85;100.00
74529;BME280;63009;52.584;5.932;2023-12-14T08:49:10;101511.91;;;4.86;100.00
74529;BME280;63009;52.584;5.932;2023-12-14T08:51:36;101517.94;;;4.89;100.00
74529;BME280;63009;52.584;5.932;2023-12-14T08:54:01;101522.16;;;4.96;100.00
74529;BME280;63009;52.584;5.932;2023-12-14T08:56:26;101529.13;;;4.96;100.00
74529;BME280;63009;52.584;5.932;2023-12-14T08:58:52;101523.16;;;4.89;100.00
74529;BME280;63009;52.584;5.932;2023-12-14T09:01:21;101531.63;;;5.00;100.00
74529;BME280;63009;52.584;5.932;2023-12-14T09:03:47;101530.75;;;5.01;100.00
74529;BME280;63009;52.584;5.932;2023-12-14T09:06:13;101538.50;;;5.04;100.00
74529;BME280;63009;52.584;5.932;2023-12-14T09:08:39;101536.88;;;5.00;100.00
74529;BME280;63009;52.584;5.932;2023-12-14T09:11:05;101536.03;;;5.00;100.00
74529;BME280;63009;52.584;5.932;2023-12-14T09:13:30;101541.09;;;5.06;100.00
74529;BME280;63009;52.584;5.932;2023-12-14T09:15:56;101535.00;;;5.05;100.00
74529;BME280;63009;52.584;5.932;2023-12-14T09:18:21;101542.19;;;4.97;100.00
74529;BME280;63009;52.584;5.932;2023-12-14T09:20:48;101556.13;;;4.99;100.00
74529;BME280;63009;52.584;5.932;2023-12-14T09:23:17;101544.00;;;4.95;100.00
74529;BME280;63009;52.584;5.932;2023-12-14T09:25:44;101545.72;;;4.96;100.00
74529;BME280;63009;52.584;5.932;2023-12-14T09:28:09;101557.75;;;5.03;100.00
74529;BME280;63009;52.584;5.932;2023-12-14T09:30:34;101560.25;;;5.10;100.00
74529;BME280;63009;52.584;5.932;2023-12-14T09:33:00;101568.97;;;5.10;100.00
74529;BME280;63009;52.584;5.932;2023-12-14T09:35:25;101569.63;;;5.18;100.00
74529;BME280;63009;52.584;5.932;2023-12-14T09:37:50;101555.22;;;5.00;100.00
74529;BME280;63009;52.584;5.932;2023-12-14T09:40:17;101575.75;;;5.17;100.00
74529;BME280;63009;52.584;5.932;2023-12-14T09:42:44;101576.56;;;5.21;100.00
74529;BME280;63009;52.584;5.932;2023-12-14T09:45:10;101578.03;;;5.31;100.00
74529;BME280;63009;52.584;5.932;2023-12-14T09:47:36;101575.81;;;5.16;100.00
74529;BME280;63009;52.584;5.932;2023-12-14T09:50:02;101591.59;;;5.13;100.00
74529;BME280;63009;52.584;5.932;2023-12-14T09:52:29;101597.66;;;5.15;100.00
74529;BME280;63009;52.584;5.932;2023-12-14T09:54:54;101596.97;;;5.08;100.00
74529;BME280;63009;52.584;5.932;2023-12-14T09:57:20;101595.78;;;5.20;100.00
74529;BME280;63009;52.584;5.932;2023-12-14T09:59:52;101600.81;;;5.29;100.00
74529;BME280;63009;52.584;5.932;2023-12-14T10:02:18;101610.47;;;5.27;100.00
74529;BME280;63009;52.584;5.932;2023-12-14T10:04:43;101608.81;;;5.24;100.00
74529;BME280;63009;52.584;5.932;2023-12-14T10:07:09;101608.94;;;5.18;100.00
74529;BME280;63009;52.584;5.932;2023-12-14T10:09:36;101611.25;;;5.30;100.00
74529;BME280;63009;52.584;5.932;2023-12-14T10:12:07;101617.56;;;5.23;100.00
74529;BME280;63009;52.584;5.932;2023-12-14T10:14:34;101619.81;;;5.39;100.00
74529;BME280;63009;52.584;5.932;2023-12-14T10:17:17;101616.31;;;5.38;100.00
74529;BME280;63009;52.584;5.932;2023-12-14T10:19:44;101630.34;;;5.37;100.00
74529;BME280;63009;52.584;5.932;2023-12-14T10:22:09;101621.63;;;5.36;100.00
74529;BME280;63009;52.584;5.932;2023-12-14T10:24:35;101624.41;;;5.29;100.00
74529;BME280;63009;52.584;5.932;2023-12-14T10:27:05;101642.09;;;5.56;100.00
74529;BME280;63009;52.584;5.932;2023-12-14T10:29:32;101647.03;;;5.69;100.00
74529;BME280;63009;52.584;5.932;2023-12-14T10:31:59;101648.91;;;5.63;100.00
74529;BME280;63009;52.584;5.932;2023-12-14T10:34:24;101651.31;;;5.71;100.00
74529;BME280;63009;52.584;5.932;2023-12-14T10:36:51;101648.41;;;5.83;100.00
74529;BME280;63009;52.584;5.932;2023-12-14T10:39:17;101652.53;;;5.93;100.00
74529;BME280;63009;52.584;5.932;2023-12-14T10:41:46;101650.59;;;6.00;100.00
74529;BME280;63009;52.584;5.932;2023-12-14T10:44:14;101660.16;;;6.03;100.00
74529;BME280;63009;52.584;5.932;2023-12-14T10:46:40;101641.00;;;5.99;100.00
74529;BME280;63009;52.584;5.932;2023-12-14T10:49:07;101642.94;;;5.92;100.00
74529;BME280;63009;52.584;5.932;2023-12-14T10:51:33;101637.13;;;5.80;100.00
74529;BME280;63009;52.584;5.932;2023-12-14T10:54:00;101641.38;;;5.84;100.00
74529;BME280;63009;52.584;5.932;2023-12-14T10:56:25;101650.13;;;5.84;100.00
74529;BME280;63009;52.584;5.932;2023-12-14T10:58:56;101651.84;;;5.85;100.00
74529;BME280;63009;52.584;5.932;2023-12-14T11:01:23;101654.34;;;5.91;100.00
74529;BME280;63009;52.584;5.932;2023-12-14T11:03:53;101648.78;;;6.02;100.00
74529;BME280;63009;52.584;5.932;2023-12-14T11:06:27;101652.13;;;6.09;100.00
74529;BME280;63009;52.584;5.932;2023-12-14T11:09:00;101640.72;;;6.10;100.00
74529;BME280;63009;52.584;5.932;2023-12-14T11:11:29;101653.53;;;6.22;100.00
74529;BME280;63009;52.584;5.932;2023-12-14T11:13:54;101659.38;;;6.32;100.00
74529;BME280;63009;52.584;5.932;2023-12-14T11:16:25;101660.97;;;6.37;100.00
74529;BME280;63009;52.584;5.932;2023-12-14T11:21:48;101666.84;;;6.45;100.00
74529;BME280;63009;52.584;5.932;2023-12-14T11:24:13;101659.03;;;6.44;100.00
74529;BME280;63009;52.584;5.932;2023-12-14T11:26:40;101685.03;;;6.53;100.00
74529;BME280;63009;52.584;5.932;2023-12-14T11:29:06;101685.09;;;6.51;100.00
74529;BME280;63009;52.584;5.932;2023-12-14T11:31:31;101680.34;;;6.64;100.00
74529;BME280;63009;52.584;5.932;2023-12-14T11:33:59;101689.66;;;6.76;100.00
74529;BME280;63009;52.584;5.932;2023-12-14T11:36:26;101692.44;;;6.70;100.00
74529;BME280;63009;52.584;5.932;2023-12-14T11:38:51;101690.84;;;6.64;100.00
74529;BME280;63009;52.584;5.932;2023-12-14T11:41:18;101695.28;;;6.62;100.00
74529;BME280;63009;52.584;5.932;2023-12-14T11:43:45;101698.78;;;6.63;100.00
74529;BME280;63009;52.584;5.932;2023-12-14T11:46:10;101690.09;;;6.59;100.00
74529;BME280;63009;52.584;5.932;2023-12-14T11:48:36;101704.84;;;6.65;100.00
74529;BME280;63009;52.584;5.932;2023-12-14T11:51:02;101692.72;;;6.59;100.00
74529;BME280;63009;52.584;5.932;2023-12-14T11:53:29;101704.81;;;6.66;100.00
74529;BME280;63009;52.584;5.932;2023-12-14T11:55:55;101704.50;;;6.77;100.00
74529;BME280;63009;52.584;5.932;2023-12-14T11:58:20;101703.59;;;6.78;100.00
74529;BME280;63009;52.584;5.932;2023-12-14T12:00:45;101695.75;;;6.76;100.00
74529;BME280;63009;52.584;5.932;2023-12-14T12:03:15;101706.03;;;6.84;100.00
74529;BME280;63009;52.584;5.932;2023-12-14T12:05:43;101702.41;;;6.88;100.00
74529;BME280;63009;52.584;5.932;2023-12-14T12:08:12;101705.13;;;6.85;100.00
74529;BME280;63009;52.584;5.932;2023-12-14T12:10:39;101708.72;;;6.82;100.00
74529;BME280;63009;52.584;5.932;2023-12-14T12:13:06;101713.28;;;6.76;100.00
74529;BME280;63009;52.584;5.932;2023-12-14T12:15:33;101713.63;;;6.64;100.00
74529;BME280;63009;52.584;5.932;2023-12-14T12:18:01;101709.97;;;6.69;100.00
74529;BME280;63009;52.584;5.932;2023-12-14T12:20:27;101705.56;;;6.70;100.00
74529;BME280;63009;52.584;5.932;2023-12-14T12:22:52;101714.16;;;6.75;100.00
74529;BME280;63009;52.584;5.932;2023-12-14T12:25:17;101721.22;;;6.73;100.00
74529;BME280;63009;52.584;5.932;2023-12-14T12:27:43;101719.78;;;6.63;100.00
74529;BME280;63009;52.584;5.932;2023-12-14T12:30:09;101713.69;;;6.62;100.00
74529;BME280;63009;52.584;5.932;2023-12-14T12:32:37;101709.63;;;6.50;100.00
74529;BME280;63009;52.584;5.932;2023-12-14T12:35:02;101720.66;;;6.63;100.00
74529;BME280;63009;52.584;5.932;2023-12-14T12:37:29;101737.44;;;6.58;100.00
74529;BME280;63009;52.584;5.932;2023-12-14T12:39:54;101736.56;;;6.57;100.00
74529;BME280;63009;52.584;5.932;2023-12-14T12:42:19;101723.47;;;6.55;100.00
74529;BME280;63009;52.584;5.932;2023-12-14T12:44:46;101733.75;;;6.65;100.00
74529;BME280;63009;52.584;5.932;2023-12-14T12:47:12;101725.97;;;6.62;100.00